Terminal Aerodrome Forecast
Issued by NWS Goodland, KS

Home | Current Version | Previous Version | Text Only | Print | Product List | Glossary On
Versions: 1 2 3 4 5 6 7 8 9 10 11 12 13 14 15 16 17
000
FTUS43 KGLD 311120
TAFGLD
TAF
KGLD 311120Z 3112/0112 17008KT P6SM BKN150
     FM311600 29008KT P6SM BKN250
     FM312100 36010G18KT P6SM VCTS SCT080CB BKN150
     FM010300 03008KT P6SM VCSH SCT080 SCT150
     FM010600 36008KT P6SM SCT120=

USA.gov is the U.S. government's official web portal to all federal, state and local government web resources and services.